sensor_id;sensor_type;location;lat;lon;timestamp;temperature;humidity
9219;DHT22;4644;48.858;9.184;2023-11-21T00:02:22;7.40;99.90
9219;DHT22;4644;48.858;9.184;2023-11-21T00:04:50;7.40;99.90
9219;DHT22;4644;48.858;9.184;2023-11-21T00:07:17;7.40;99.90
9219;DHT22;4644;48.858;9.184;2023-11-21T00:09:46;7.40;99.90
9219;DHT22;4644;48.858;9.184;2023-11-21T00:12:13;7.40;99.90
9219;DHT22;4644;48.858;9.184;2023-11-21T00:14:40;7.30;99.90
9219;DHT22;4644;48.858;9.184;2023-11-21T00:17:07;7.40;99.90
9219;DHT22;4644;48.858;9.184;2023-11-21T00:19:49;7.30;99.90
9219;DHT22;4644;48.858;9.184;2023-11-21T00:22:17;7.30;99.90
9219;DHT22;4644;48.858;9.184;2023-11-21T00:24:44;7.40;99.90
9219;DHT22;4644;48.858;9.184;2023-11-21T00:27:11;7.40;99.90
9219;DHT22;4644;48.858;9.184;2023-11-21T00:29:38;7.40;99.90
9219;DHT22;4644;48.858;9.184;2023-11-21T00:32:06;7.40;99.90
9219;DHT22;4644;48.858;9.184;2023-11-21T00:34:33;7.40;99.90
9219;DHT22;4644;48.858;9.184;2023-11-21T00:37:01;7.50;99.90
9219;DHT22;4644;48.858;9.184;2023-11-21T00:39:29;7.50;99.90
9219;DHT22;4644;48.858;9.184;2023-11-21T00:41:56;7.50;99.90
9219;DHT22;4644;48.858;9.184;2023-11-21T00:44:23;7.60;99.90
9219;DHT22;4644;48.858;9.184;2023-11-21T00:46:50;7.60;99.90
9219;DHT22;4644;48.858;9.184;2023-11-21T00:49:17;7.60;99.90
9219;DHT22;4644;48.858;9.184;2023-11-21T00:51:45;7.60;99.90
9219;DHT22;4644;48.858;9.184;2023-11-21T00:54:13;7.60;99.90
9219;DHT22;4644;48.858;9.184;2023-11-21T00:56:42;7.60;99.90
9219;DHT22;4644;48.858;9.184;2023-11-21T00:59:09;7.50;99.90
9219;DHT22;4644;48.858;9.184;2023-11-21T01:01:37;7.60;99.90
9219;DHT22;4644;48.858;9.184;2023-11-21T01:04:04;7.60;99.90
9219;DHT22;4644;48.858;9.184;2023-11-21T01:06:32;7.50;99.90
9219;DHT22;4644;48.858;9.184;2023-11-21T01:08:59;7.60;99.90
9219;DHT22;4644;48.858;9.184;2023-11-21T01:11:28;7.60;99.90
9219;DHT22;4644;48.858;9.184;2023-11-21T01:13:55;7.60;99.90
9219;DHT22;4644;48.858;9.184;2023-11-21T01:16:22;7.50;99.90
9219;DHT22;4644;48.858;9.184;2023-11-21T01:18:50;7.50;99.90
9219;DHT22;4644;48.858;9.184;2023-11-21T01:21:17;7.50;99.90
9219;DHT22;4644;48.858;9.184;2023-11-21T01:23:44;7.60;99.90
9219;DHT22;4644;48.858;9.184;2023-11-21T01:26:11;7.60;99.90
9219;DHT22;4644;48.858;9.184;2023-11-21T01:28:39;7.60;99.90
9219;DHT22;4644;48.858;9.184;2023-11-21T01:31:06;7.50;99.90
9219;DHT22;4644;48.858;9.184;2023-11-21T01:33:33;7.50;99.90
9219;DHT22;4644;48.858;9.184;2023-11-21T01:36:00;7.50;99.90
9219;DHT22;4644;48.858;9.184;2023-11-21T01:38:27;7.50;99.90
9219;DHT22;4644;48.858;9.184;2023-11-21T01:40:54;7.50;99.90
9219;DHT22;4644;48.858;9.184;2023-11-21T01:43:21;7.50;99.90
9219;DHT22;4644;48.858;9.184;2023-11-21T01:45:50;7.50;99.90
9219;DHT22;4644;48.858;9.184;2023-11-21T01:48:17;7.50;99.90
9219;DHT22;4644;48.858;9.184;2023-11-21T01:50:44;7.60;99.90
9219;DHT22;4644;48.858;9.184;2023-11-21T01:53:12;7.50;99.90
9219;DHT22;4644;48.858;9.184;2023-11-21T01:55:40;7.50;99.90
9219;DHT22;4644;48.858;9.184;2023-11-21T01:58:10;7.50;99.90
9219;DHT22;4644;48.858;9.184;2023-11-21T02:00:38;7.60;99.90
9219;DHT22;4644;48.858;9.184;2023-11-21T02:03:07;7.60;99.90
9219;DHT22;4644;48.858;9.184;2023-11-21T02:05:36;7.60;99.90
9219;DHT22;4644;48.858;9.184;2023-11-21T02:08:04;7.60;99.90
9219;DHT22;4644;48.858;9.184;2023-11-21T02:10:31;7.60;99.90
9219;DHT22;4644;48.858;9.184;2023-11-21T02:12:58;7.60;99.90
9219;DHT22;4644;48.858;9.184;2023-11-21T02:15:28;7.50;99.90
9219;DHT22;4644;48.858;9.184;2023-11-21T02:17:55;7.60;99.90
9219;DHT22;4644;48.858;9.184;2023-11-21T02:20:25;7.60;99.90
9219;DHT22;4644;48.858;9.184;2023-11-21T02:22:56;7.60;99.90
9219;DHT22;4644;48.858;9.184;2023-11-21T02:25:25;7.60;99.90
9219;DHT22;4644;48.858;9.184;2023-11-21T02:27:53;7.70;99.90
9219;DHT22;4644;48.858;9.184;2023-11-21T02:30:21;7.70;99.90
9219;DHT22;4644;48.858;9.184;2023-11-21T02:32:48;7.70;99.90
9219;DHT22;4644;48.858;9.184;2023-11-21T02:35:15;7.70;99.90
9219;DHT22;4644;48.858;9.184;2023-11-21T02:37:42;7.70;99.90
9219;DHT22;4644;48.858;9.184;2023-11-21T02:40:12;7.80;99.90
9219;DHT22;4644;48.858;9.184;2023-11-21T02:42:43;7.80;99.90
9219;DHT22;4644;48.858;9.184;2023-11-21T02:45:10;7.80;99.90
9219;DHT22;4644;48.858;9.184;2023-11-21T02:47:38;7.80;99.90
9219;DHT22;4644;48.858;9.184;2023-11-21T02:50:07;7.80;99.90
9219;DHT22;4644;48.858;9.184;2023-11-21T02:52:34;7.80;99.90
9219;DHT22;4644;48.858;9.184;2023-11-21T02:55:01;7.80;99.90
9219;DHT22;4644;48.858;9.184;2023-11-21T02:57:30;7.80;99.90
9219;DHT22;4644;48.858;9.184;2023-11-21T02:59:57;7.70;99.90
9219;DHT22;4644;48.858;9.184;2023-11-21T03:02:24;7.70;99.90
9219;DHT22;4644;48.858;9.184;2023-11-21T03:04:51;7.70;99.90
9219;DHT22;4644;48.858;9.184;2023-11-21T03:07:18;7.70;99.90
9219;DHT22;4644;48.858;9.184;2023-11-21T03:09:45;7.70;99.90
9219;DHT22;4644;48.858;9.184;2023-11-21T03:12:12;7.70;99.90
9219;DHT22;4644;48.858;9.184;2023-11-21T03:14:44;7.70;99.90
9219;DHT22;4644;48.858;9.184;2023-11-21T03:17:11;7.70;99.90
9219;DHT22;4644;48.858;9.184;2023-11-21T03:19:41;7.70;99.90
9219;DHT22;4644;48.858;9.184;2023-11-21T03:22:08;7.70;99.90
9219;DHT22;4644;48.858;9.184;2023-11-21T03:24:35;7.70;99.90
9219;DHT22;4644;48.858;9.184;2023-11-21T03:27:04;7.70;99.90
9219;DHT22;4644;48.858;9.184;2023-11-21T03:29:31;7.80;99.90
9219;DHT22;4644;48.858;9.184;2023-11-21T03:31:59;7.80;99.90
9219;DHT22;4644;48.858;9.184;2023-11-21T03:34:27;7.80;99.90
9219;DHT22;4644;48.858;9.184;2023-11-21T03:36:54;7.80;99.90
9219;DHT22;4644;48.858;9.184;2023-11-21T03:39:22;7.80;99.90
9219;DHT22;4644;48.858;9.184;2023-11-21T03:41:49;7.80;99.90
9219;DHT22;4644;48.858;9.184;2023-11-21T03:44:17;7.80;99.90
9219;DHT22;4644;48.858;9.184;2023-11-21T03:46:44;7.80;99.90
9219;DHT22;4644;48.858;9.184;2023-11-21T03:49:13;7.80;99.90
9219;DHT22;4644;48.858;9.184;2023-11-21T03:51:40;7.80;99.90
9219;DHT22;4644;48.858;9.184;2023-11-21T03:54:07;7.80;99.90
9219;DHT22;4644;48.858;9.184;2023-11-21T03:56:34;7.80;99.90
9219;DHT22;4644;48.858;9.184;2023-11-21T03:59:01;7.80;99.90
9219;DHT22;4644;48.858;9.184;2023-11-21T04:01:29;7.80;99.90
9219;DHT22;4644;48.858;9.184;2023-11-21T04:03:56;7.80;99.90
9219;DHT22;4644;48.858;9.184;2023-11-21T04:06:24;7.80;99.90
9219;DHT22;4644;48.858;9.184;2023-11-21T04:08:51;7.80;99.90
9219;DHT22;4644;48.858;9.184;2023-11-21T04:11:18;7.80;99.90
9219;DHT22;4644;48.858;9.184;2023-11-21T04:13:45;7.80;99.90
9219;DHT22;4644;48.858;9.184;2023-11-21T04:16:13;7.80;99.90
9219;DHT22;4644;48.858;9.184;2023-11-21T04:18:42;7.70;99.90
9219;DHT22;4644;48.858;9.184;2023-11-21T04:21:09;7.70;99.90
9219;DHT22;4644;48.858;9.184;2023-11-21T04:23:37;7.70;99.90
9219;DHT22;4644;48.858;9.184;2023-11-21T04:26:05;7.70;99.90
9219;DHT22;4644;48.858;9.184;2023-11-21T04:28:32;7.70;99.90
9219;DHT22;4644;48.858;9.184;2023-11-21T04:31:00;7.60;99.90
9219;DHT22;4644;48.858;9.184;2023-11-21T04:33:27;7.60;99.90
9219;DHT22;4644;48.858;9.184;2023-11-21T04:35:54;7.60;99.90
9219;DHT22;4644;48.858;9.184;2023-11-21T04:38:21;7.60;99.90
9219;DHT22;4644;48.858;9.184;2023-11-21T04:40:50;7.60;99.90
9219;DHT22;4644;48.858;9.184;2023-11-21T04:43:17;7.50;99.90
9219;DHT22;4644;48.858;9.184;2023-11-21T04:45:44;7.50;99.90
9219;DHT22;4644;48.858;9.184;2023-11-21T04:48:11;7.50;99.90
9219;DHT22;4644;48.858;9.184;2023-11-21T04:50:38;7.50;99.90
9219;DHT22;4644;48.858;9.184;2023-11-21T04:53:05;7.60;99.90
9219;DHT22;4644;48.858;9.184;2023-11-21T04:55:32;7.60;99.90
9219;DHT22;4644;48.858;9.184;2023-11-21T04:58:00;7.50;99.90
9219;DHT22;4644;48.858;9.184;2023-11-21T05:00:30;7.60;99.90
9219;DHT22;4644;48.858;9.184;2023-11-21T05:02:57;7.60;99.90
9219;DHT22;4644;48.858;9.184;2023-11-21T05:05:23;7.60;99.90
9219;DHT22;4644;48.858;9.184;2023-11-21T05:07:51;7.60;99.90
9219;DHT22;4644;48.858;9.184;2023-11-21T05:10:19;7.60;99.90
9219;DHT22;4644;48.858;9.184;2023-11-21T05:12:46;7.60;99.90
9219;DHT22;4644;48.858;9.184;2023-11-21T05:15:16;7.60;99.90
9219;DHT22;4644;48.858;9.184;2023-11-21T05:17:44;7.60;99.90
9219;DHT22;4644;48.858;9.184;2023-11-21T05:20:12;7.60;99.90
9219;DHT22;4644;48.858;9.184;2023-11-21T05:22:39;7.60;99.90
9219;DHT22;4644;48.858;9.184;2023-11-21T05:25:08;7.50;99.90
9219;DHT22;4644;48.858;9.184;2023-11-21T05:27:35;7.50;99.90
9219;DHT22;4644;48.858;9.184;2023-11-21T05:30:02;7.50;99.90
9219;DHT22;4644;48.858;9.184;2023-11-21T05:32:32;7.50;99.90
9219;DHT22;4644;48.858;9.184;2023-11-21T05:35:00;7.50;99.90
9219;DHT22;4644;48.858;9.184;2023-11-21T05:37:27;7.40;99.90
9219;DHT22;4644;48.858;9.184;2023-11-21T05:39:54;7.40;99.90
9219;DHT22;4644;48.858;9.184;2023-11-21T05:42:24;7.40;99.90
9219;DHT22;4644;48.858;9.184;2023-11-21T05:44:52;7.50;99.90
9219;DHT22;4644;48.858;9.184;2023-11-21T05:47:19;7.40;99.90
9219;DHT22;4644;48.858;9.184;2023-11-21T05:49:48;7.50;99.90
9219;DHT22;4644;48.858;9.184;2023-11-21T05:52:17;7.50;99.90
9219;DHT22;4644;48.858;9.184;2023-11-21T05:54:44;7.40;99.90
9219;DHT22;4644;48.858;9.184;2023-11-21T05:57:11;7.40;99.90
9219;DHT22;4644;48.858;9.184;2023-11-21T05:59:38;7.40;99.90
9219;DHT22;4644;48.858;9.184;2023-11-21T06:02:05;7.40;99.90
9219;DHT22;4644;48.858;9.184;2023-11-21T06:04:33;7.40;99.90
9219;DHT22;4644;48.858;9.184;2023-11-21T06:07:01;7.40;99.90
9219;DHT22;4644;48.858;9.184;2023-11-21T06:09:29;7.40;99.90
9219;DHT22;4644;48.858;9.184;2023-11-21T06:11:56;7.40;99.90
9219;DHT22;4644;48.858;9.184;2023-11-21T06:14:24;7.40;99.90
9219;DHT22;4644;48.858;9.184;2023-11-21T06:16:51;7.30;99.90
9219;DHT22;4644;48.858;9.184;2023-11-21T06:19:18;7.40;99.90
9219;DHT22;4644;48.858;9.184;2023-11-21T06:21:46;7.40;99.90
9219;DHT22;4644;48.858;9.184;2023-11-21T06:24:15;7.30;99.90
9219;DHT22;4644;48.858;9.184;2023-11-21T06:26:42;7.30;99.90
9219;DHT22;4644;48.858;9.184;2023-11-21T06:29:10;7.30;99.90
9219;DHT22;4644;48.858;9.184;2023-11-21T06:31:37;7.30;99.90
9219;DHT22;4644;48.858;9.184;2023-11-21T06:34:06;7.30;99.90
9219;DHT22;4644;48.858;9.184;2023-11-21T06:36:34;7.30;99.90
9219;DHT22;4644;48.858;9.184;2023-11-21T06:39:01;7.30;99.90
9219;DHT22;4644;48.858;9.184;2023-11-21T06:41:33;7.30;99.90
9219;DHT22;4644;48.858;9.184;2023-11-21T06:44:00;7.40;99.90
9219;DHT22;4644;48.858;9.184;2023-11-21T06:46:28;7.40;99.90
9219;DHT22;4644;48.858;9.184;2023-11-21T06:48:55;7.40;99.90
9219;DHT22;4644;48.858;9.184;2023-11-21T06:51:22;7.40;99.90
9219;DHT22;4644;48.858;9.184;2023-11-21T06:53:49;7.40;99.90
9219;DHT22;4644;48.858;9.184;2023-11-21T06:56:16;7.40;99.90
9219;DHT22;4644;48.858;9.184;2023-11-21T06:58:45;7.40;99.90
9219;DHT22;4644;48.858;9.184;2023-11-21T07:01:13;7.40;99.90
9219;DHT22;4644;48.858;9.184;2023-11-21T07:03:41;7.50;99.90
9219;DHT22;4644;48.858;9.184;2023-11-21T07:06:08;7.40;99.90
9219;DHT22;4644;48.858;9.184;2023-11-21T07:08:35;7.40;99.90
9219;DHT22;4644;48.858;9.184;2023-11-21T07:11:03;7.40;99.90
9219;DHT22;4644;48.858;9.184;2023-11-21T07:13:30;7.50;99.90
9219;DHT22;4644;48.858;9.184;2023-11-21T07:15:59;7.40;99.90
9219;DHT22;4644;48.858;9.184;2023-11-21T07:18:26;7.50;99.90
9219;DHT22;4644;48.858;9.184;2023-11-21T07:20:53;7.50;99.90
9219;DHT22;4644;48.858;9.184;2023-11-21T07:23:20;7.50;99.90
9219;DHT22;4644;48.858;9.184;2023-11-21T07:25:48;7.50;99.90
9219;DHT22;4644;48.858;9.184;2023-11-21T07:28:15;7.60;99.90
9219;DHT22;4644;48.858;9.184;2023-11-21T07:30:42;7.50;99.90
9219;DHT22;4644;48.858;9.184;2023-11-21T07:33:11;7.60;99.90
9219;DHT22;4644;48.858;9.184;2023-11-21T07:35:38;7.60;99.90
9219;DHT22;4644;48.858;9.184;2023-11-21T07:38:05;7.60;99.90
9219;DHT22;4644;48.858;9.184;2023-11-21T07:40:32;7.60;99.90
9219;DHT22;4644;48.858;9.184;2023-11-21T07:42:59;7.70;99.90
9219;DHT22;4644;48.858;9.184;2023-11-21T07:45:26;7.70;99.90
9219;DHT22;4644;48.858;9.184;2023-11-21T07:47:54;7.80;99.90
9219;DHT22;4644;48.858;9.184;2023-11-21T07:50:23;7.80;99.90
9219;DHT22;4644;48.858;9.184;2023-11-21T07:52:50;7.90;99.90
9219;DHT22;4644;48.858;9.184;2023-11-21T07:55:17;7.90;99.90
9219;DHT22;4644;48.858;9.184;2023-11-21T07:57:44;7.90;99.90
9219;DHT22;4644;48.858;9.184;2023-11-21T08:00:12;8.00;99.90
9219;DHT22;4644;48.858;9.184;2023-11-21T08:02:41;8.00;99.90
9219;DHT22;4644;48.858;9.184;2023-11-21T08:05:11;8.00;99.90
9219;DHT22;4644;48.858;9.184;2023-11-21T08:07:40;8.10;99.90
9219;DHT22;4644;48.858;9.184;2023-11-21T08:10:08;8.10;99.90
9219;DHT22;4644;48.858;9.184;2023-11-21T08:12:36;8.10;99.90
9219;DHT22;4644;48.858;9.184;2023-11-21T08:15:06;8.20;99.90
9219;DHT22;4644;48.858;9.184;2023-11-21T08:17:33;8.20;99.90
9219;DHT22;4644;48.858;9.184;2023-11-21T08:20:01;8.20;99.90
9219;DHT22;4644;48.858;9.184;2023-11-21T08:22:28;8.30;99.90
9219;DHT22;4644;48.858;9.184;2023-11-21T08:24:57;8.30;99.90
9219;DHT22;4644;48.858;9.184;2023-11-21T08:27:24;8.30;99.90
9219;DHT22;4644;48.858;9.184;2023-11-21T08:29:51;8.40;99.90
9219;DHT22;4644;48.858;9.184;2023-11-21T08:32:18;8.40;99.90
9219;DHT22;4644;48.858;9.184;2023-11-21T08:34:46;8.40;99.90
9219;DHT22;4644;48.858;9.184;2023-11-21T08:37:16;8.50;99.90
9219;DHT22;4644;48.858;9.184;2023-11-21T08:39:43;8.50;99.90
9219;DHT22;4644;48.858;9.184;2023-11-21T08:42:12;8.50;99.90
9219;DHT22;4644;48.858;9.184;2023-11-21T08:44:42;8.50;99.90
9219;DHT22;4644;48.858;9.184;2023-11-21T08:47:09;8.50;99.90
9219;DHT22;4644;48.858;9.184;2023-11-21T08:49:36;8.60;99.90
9219;DHT22;4644;48.858;9.184;2023-11-21T08:52:04;8.70;99.90
9219;DHT22;4644;48.858;9.184;2023-11-21T08:54:32;8.70;99.90
9219;DHT22;4644;48.858;9.184;2023-11-21T08:56:59;8.80;99.90
9219;DHT22;4644;48.858;9.184;2023-11-21T08:59:28;8.80;99.90
9219;DHT22;4644;48.858;9.184;2023-11-21T09:01:55;8.90;99.90
9219;DHT22;4644;48.858;9.184;2023-11-21T09:04:22;8.80;99.90
9219;DHT22;4644;48.858;9.184;2023-11-21T09:06:49;8.80;99.90
9219;DHT22;4644;48.858;9.184;2023-11-21T09:09:16;8.90;99.90
9219;DHT22;4644;48.858;9.184;2023-11-21T09:11:43;8.90;99.90
9219;DHT22;4644;48.858;9.184;2023-11-21T09:14:11;8.90;99.90
9219;DHT22;4644;48.858;9.184;2023-11-21T09:16:43;9.00;99.90
9219;DHT22;4644;48.858;9.184;2023-11-21T09:19:10;9.00;99.90
9219;DHT22;4644;48.858;9.184;2023-11-21T09:21:37;9.00;99.90
9219;DHT22;4644;48.858;9.184;2023-11-21T09:24:05;9.00;99.90
9219;DHT22;4644;48.858;9.184;2023-11-21T09:26:34;9.00;99.90
9219;DHT22;4644;48.858;9.184;2023-11-21T09:29:01;9.00;99.90
9219;DHT22;4644;48.858;9.184;2023-11-21T09:31:28;8.90;99.90
9219;DHT22;4644;48.858;9.184;2023-11-21T09:33:58;8.80;99.90
9219;DHT22;4644;48.858;9.184;2023-11-21T09:36:25;8.70;99.90
9219;DHT22;4644;48.858;9.184;2023-11-21T09:38:53;8.70;99.90
9219;DHT22;4644;48.858;9.184;2023-11-21T09:41:25;8.70;99.90
9219;DHT22;4644;48.858;9.184;2023-11-21T09:43:57;8.60;99.90
9219;DHT22;4644;48.858;9.184;2023-11-21T09:46:28;8.70;99.90
9219;DHT22;4644;48.858;9.184;2023-11-21T09:48:59;8.70;99.90
9219;DHT22;4644;48.858;9.184;2023-11-21T09:51:27;8.70;99.90
9219;DHT22;4644;48.858;9.184;2023-11-21T09:53:59;8.60;99.90
9219;DHT22;4644;48.858;9.184;2023-11-21T09:56:32;8.60;99.90
9219;DHT22;4644;48.858;9.184;2023-11-21T09:59:00;8.70;99.90
9219;DHT22;4644;48.858;9.184;2023-11-21T10:01:32;8.60;99.90
9219;DHT22;4644;48.858;9.184;2023-11-21T10:04:01;8.60;99.90
9219;DHT22;4644;48.858;9.184;2023-11-21T10:06:29;8.60;99.90
9219;DHT22;4644;48.858;9.184;2023-11-21T10:08:59;8.60;99.90
9219;DHT22;4644;48.858;9.184;2023-11-21T10:11:27;8.50;99.90
9219;DHT22;4644;48.858;9.184;2023-11-21T10:13:55;8.50;99.90
9219;DHT22;4644;48.858;9.184;2023-11-21T10:16:26;8.40;99.90
9219;DHT22;4644;48.858;9.184;2023-11-21T10:18:57;8.40;99.90
9219;DHT22;4644;48.858;9.184;2023-11-21T10:21:26;8.40;99.90
9219;DHT22;4644;48.858;9.184;2023-11-21T10:23:54;8.40;99.90
9219;DHT22;4644;48.858;9.184;2023-11-21T10:26:23;8.40;99.90
9219;DHT22;4644;48.858;9.184;2023-11-21T10:28:57;8.40;99.90
9219;DHT22;4644;48.858;9.184;2023-11-21T10:31:24;8.40;99.90
9219;DHT22;4644;48.858;9.184;2023-11-21T10:33:53;8.40;99.90
9219;DHT22;4644;48.858;9.184;2023-11-21T10:36:28;8.40;99.90
9219;DHT22;4644;48.858;9.184;2023-11-21T10:38:56;8.40;99.90
9219;DHT22;4644;48.858;9.184;2023-11-21T10:41:23;8.40;99.90
9219;DHT22;4644;48.858;9.184;2023-11-21T10:43:53;8.50;99.90
9219;DHT22;4644;48.858;9.184;2023-11-21T10:46:21;8.50;99.90
9219;DHT22;4644;48.858;9.184;2023-11-21T10:48:52;8.60;99.90
9219;DHT22;4644;48.858;9.184;2023-11-21T10:51:21;8.60;99.90
9219;DHT22;4644;48.858;9.184;2023-11-21T10:53:51;8.60;99.90
9219;DHT22;4644;48.858;9.184;2023-11-21T10:56:19;8.60;99.90
9219;DHT22;4644;48.858;9.184;2023-11-21T10:58:48;8.60;99.90
9219;DHT22;4644;48.858;9.184;2023-11-21T11:01:18;8.80;99.90
9219;DHT22;4644;48.858;9.184;2023-11-21T11:03:47;8.80;99.90
9219;DHT22;4644;48.858;9.184;2023-11-21T11:06:14;8.80;99.90
9219;DHT22;4644;48.858;9.184;2023-11-21T11:08:42;8.80;99.90
9219;DHT22;4644;48.858;9.184;2023-11-21T11:11:10;8.80;99.90
9219;DHT22;4644;48.858;9.184;2023-11-21T11:13:38;8.90;99.90
9219;DHT22;4644;48.858;9.184;2023-11-21T11:16:06;8.90;99.90
9219;DHT22;4644;48.858;9.184;2023-11-21T11:18:36;9.10;99.90
9219;DHT22;4644;48.858;9.184;2023-11-21T11:21:10;9.10;99.90
9219;DHT22;4644;48.858;9.184;2023-11-21T11:23:50;9.10;99.90
9219;DHT22;4644;48.858;9.184;2023-11-21T11:26:32;9.10;99.90
9219;DHT22;4644;48.858;9.184;2023-11-21T11:29:10;9.10;99.90
9219;DHT22;4644;48.858;9.184;2023-11-21T11:31:48;9.20;99.90
9219;DHT22;4644;48.858;9.184;2023-11-21T11:34:23;9.20;99.90
9219;DHT22;4644;48.858;9.184;2023-11-21T11:37:00;9.20;99.90
9219;DHT22;4644;48.858;9.184;2023-11-21T11:39:30;9.30;99.90
9219;DHT22;4644;48.858;9.184;2023-11-21T11:42:02;9.20;99.90
9219;DHT22;4644;48.858;9.184;2023-11-21T11:44:50;9.20;99.90
9219;DHT22;4644;48.858;9.184;2023-11-21T11:47:23;9.20;99.90
9219;DHT22;4644;48.858;9.184;2023-11-21T11:49:58;9.10;99.90
9219;DHT22;4644;48.858;9.184;2023-11-21T11:52:42;9.10;99.90
9219;DHT22;4644;48.858;9.184;2023-11-21T11:55:11;9.00;99.90
9219;DHT22;4644;48.858;9.184;2023-11-21T11:57:41;9.00;99.90
9219;DHT22;4644;48.858;9.184;2023-11-21T12:00:13;8.90;99.90
9219;DHT22;4644;48.858;9.184;2023-11-21T12:02:47;8.90;99.90
9219;DHT22;4644;48.858;9.184;2023-11-21T12:05:15;8.90;99.90
9219;DHT22;4644;48.858;9.184;2023-11-21T12:07:48;9.00;99.90
9219;DHT22;4644;48.858;9.184;2023-11-21T12:10:17;9.00;99.90
9219;DHT22;4644;48.858;9.184;2023-11-21T12:12:50;9.00;99.90
9219;DHT22;4644;48.858;9.184;2023-11-21T12:15:18;9.10;99.90
9219;DHT22;4644;48.858;9.184;2023-11-21T12:17:46;9.20;99.90
9219;DHT22;4644;48.858;9.184;2023-11-21T12:20:15;9.10;99.90
9219;DHT22;4644;48.858;9.184;2023-11-21T12:22:45;9.10;99.90
9219;DHT22;4644;48.858;9.184;2023-11-21T12:25:16;9.10;99.90
9219;DHT22;4644;48.858;9.184;2023-11-21T12:27:45;9.20;99.90
9219;DHT22;4644;48.858;9.184;2023-11-21T12:30:14;9.30;99.90
9219;DHT22;4644;48.858;9.184;2023-11-21T12:32:42;9.30;99.90
9219;DHT22;4644;48.858;9.184;2023-11-21T12:35:09;9.40;99.90
9219;DHT22;4644;48.858;9.184;2023-11-21T12:37:37;9.40;99.90
9219;DHT22;4644;48.858;9.184;2023-11-21T12:40:07;9.50;99.90
9219;DHT22;4644;48.858;9.184;2023-11-21T12:42:37;9.40;99.90
9219;DHT22;4644;48.858;9.184;2023-11-21T12:45:20;9.40;99.90
9219;DHT22;4644;48.858;9.184;2023-11-21T12:47:48;9.50;99.90
9219;DHT22;4644;48.858;9.184;2023-11-21T12:50:19;9.40;99.90
9219;DHT22;4644;48.858;9.184;2023-11-21T12:52:50;9.40;99.90
9219;DHT22;4644;48.858;9.184;2023-11-21T12:55:20;9.30;99.90
9219;DHT22;4644;48.858;9.184;2023-11-21T12:57:49;9.30;99.90
9219;DHT22;4644;48.858;9.184;2023-11-21T13:00:20;9.40;99.90
9219;DHT22;4644;48.858;9.184;2023-11-21T13:02:54;9.20;99.90
9219;DHT22;4644;48.858;9.184;2023-11-21T13:05:30;9.10;99.90
9219;DHT22;4644;48.858;9.184;2023-11-21T13:07:59;8.90;99.90
9219;DHT22;4644;48.858;9.184;2023-11-21T13:10:29;8.80;99.90
9219;DHT22;4644;48.858;9.184;2023-11-21T13:12:57;8.80;99.90
9219;DHT22;4644;48.858;9.184;2023-11-21T13:15:27;8.70;99.90
9219;DHT22;4644;48.858;9.184;2023-11-21T13:17:54;8.60;99.90
9219;DHT22;4644;48.858;9.184;2023-11-21T13:20:23;8.60;99.90
9219;DHT22;4644;48.858;9.184;2023-11-21T13:22:52;8.50;99.90
9219;DHT22;4644;48.858;9.184;2023-11-21T13:25:23;8.50;99.90
9219;DHT22;4644;48.858;9.184;2023-11-21T13:27:53;8.50;99.90
9219;DHT22;4644;48.858;9.184;2023-11-21T13:30:20;8.50;99.90
9219;DHT22;4644;48.858;9.184;2023-11-21T13:32:54;8.50;99.90
9219;DHT22;4644;48.858;9.184;2023-11-21T13:35:23;8.60;99.90
9219;DHT22;4644;48.858;9.184;2023-11-21T13:37:57;8.60;99.90
9219;DHT22;4644;48.858;9.184;2023-11-21T13:40:26;8.60;99.90
9219;DHT22;4644;48.858;9.184;2023-11-21T13:42:53;8.60;99.90
9219;DHT22;4644;48.858;9.184;2023-11-21T13:45:23;8.60;99.90
9219;DHT22;4644;48.858;9.184;2023-11-21T13:47:53;8.60;99.90
9219;DHT22;4644;48.858;9.184;2023-11-21T13:50:23;8.50;99.90
9219;DHT22;4644;48.858;9.184;2023-11-21T13:52:54;8.50;99.90
9219;DHT22;4644;48.858;9.184;2023-11-21T13:55:21;8.50;99.90
9219;DHT22;4644;48.858;9.184;2023-11-21T13:57:51;8.50;99.90
9219;DHT22;4644;48.858;9.184;2023-11-21T14:00:18;8.50;99.90
9219;DHT22;4644;48.858;9.184;2023-11-21T14:03:04;8.50;99.90
9219;DHT22;4644;48.858;9.184;2023-11-21T14:05:36;8.50;99.90
9219;DHT22;4644;48.858;9.184;2023-11-21T14:08:05;8.50;99.90
9219;DHT22;4644;48.858;9.184;2023-11-21T14:10:32;8.50;99.90
9219;DHT22;4644;48.858;9.184;2023-11-21T14:13:06;8.50;99.90
9219;DHT22;4644;48.858;9.184;2023-11-21T14:15:33;8.40;99.90
9219;DHT22;4644;48.858;9.184;2023-11-21T14:18:05;8.40;99.90
9219;DHT22;4644;48.858;9.184;2023-11-21T14:20:36;8.40;99.90
9219;DHT22;4644;48.858;9.184;2023-11-21T14:23:03;8.40;99.90
9219;DHT22;4644;48.858;9.184;2023-11-21T14:25:34;8.30;99.90
9219;DHT22;4644;48.858;9.184;2023-11-21T14:28:02;8.40;99.90
9219;DHT22;4644;48.858;9.184;2023-11-21T14:30:30;8.40;99.90
9219;DHT22;4644;48.858;9.184;2023-11-21T14:33:00;8.40;99.90
9219;DHT22;4644;48.858;9.184;2023-11-21T14:35:29;8.40;99.90
9219;DHT22;4644;48.858;9.184;2023-11-21T14:37:58;8.40;99.90
9219;DHT22;4644;48.858;9.184;2023-11-21T14:40:26;8.40;99.90
9219;DHT22;4644;48.858;9.184;2023-11-21T14:42:59;8.50;99.90
9219;DHT22;4644;48.858;9.184;2023-11-21T14:45:26;8.50;99.90
9219;DHT22;4644;48.858;9.184;2023-11-21T14:47:54;8.50;99.90
9219;DHT22;4644;48.858;9.184;2023-11-21T14:50:33;8.50;99.90
9219;DHT22;4644;48.858;9.184;2023-11-21T14:53:17;8.50;99.90
9219;DHT22;4644;48.858;9.184;2023-11-21T14:56:04;8.60;99.90
9219;DHT22;4644;48.858;9.184;2023-11-21T14:58:33;8.50;99.90
9219;DHT22;4644;48.858;9.184;2023-11-21T15:00:59;8.50;99.90
9219;DHT22;4644;48.858;9.184;2023-11-21T15:03:27;8.50;99.90
9219;DHT22;4644;48.858;9.184;2023-11-21T15:06:10;8.50;99.90
9219;DHT22;4644;48.858;9.184;2023-11-21T15:08:52;8.50;99.90
9219;DHT22;4644;48.858;9.184;2023-11-21T15:11:25;8.40;99.90
9219;DHT22;4644;48.858;9.184;2023-11-21T15:13:56;8.50;99.90
9219;DHT22;4644;48.858;9.184;2023-11-21T15:16:24;8.40;99.90
9219;DHT22;4644;48.858;9.184;2023-11-21T15:18:52;8.40;99.90
9219;DHT22;4644;48.858;9.184;2023-11-21T15:21:21;8.30;99.90
9219;DHT22;4644;48.858;9.184;2023-11-21T15:23:50;8.30;99.90
9219;DHT22;4644;48.858;9.184;2023-11-21T15:26:17;8.20;99.90
9219;DHT22;4644;48.858;9.184;2023-11-21T15:28:44;8.20;99.90
9219;DHT22;4644;48.858;9.184;2023-11-21T15:31:11;8.20;99.90
9219;DHT22;4644;48.858;9.184;2023-11-21T15:33:38;8.20;99.90
9219;DHT22;4644;48.858;9.184;2023-11-21T15:36:06;8.20;99.90
9219;DHT22;4644;48.858;9.184;2023-11-21T15:38:37;8.20;99.90
9219;DHT22;4644;48.858;9.184;2023-11-21T15:41:05;8.20;99.90
9219;DHT22;4644;48.858;9.184;2023-11-21T15:43:35;8.20;99.90
9219;DHT22;4644;48.858;9.184;2023-11-21T15:46:02;8.20;99.90
9219;DHT22;4644;48.858;9.184;2023-11-21T15:48:33;8.20;99.90
9219;DHT22;4644;48.858;9.184;2023-11-21T15:51:01;8.20;99.90
9219;DHT22;4644;48.858;9.184;2023-11-21T15:53:30;8.20;99.90
9219;DHT22;4644;48.858;9.184;2023-11-21T15:55:59;8.10;99.90
9219;DHT22;4644;48.858;9.184;2023-11-21T15:58:26;8.10;99.90
9219;DHT22;4644;48.858;9.184;2023-11-21T16:00:53;8.10;99.90
9219;DHT22;4644;48.858;9.184;2023-11-21T16:03:22;8.10;99.90
9219;DHT22;4644;48.858;9.184;2023-11-21T16:05:51;8.10;99.90
9219;DHT22;4644;48.858;9.184;2023-11-21T16:08:18;8.10;99.90
9219;DHT22;4644;48.858;9.184;2023-11-21T16:10:45;8.10;99.90
9219;DHT22;4644;48.858;9.184;2023-11-21T16:13:14;8.10;99.90
9219;DHT22;4644;48.858;9.184;2023-11-21T16:15:42;8.10;99.90
9219;DHT22;4644;48.858;9.184;2023-11-21T16:18:09;8.00;99.90
9219;DHT22;4644;48.858;9.184;2023-11-21T16:20:37;8.00;99.90
9219;DHT22;4644;48.858;9.184;2023-11-21T16:23:04;8.00;99.90
9219;DHT22;4644;48.858;9.184;2023-11-21T16:25:31;7.90;99.90
9219;DHT22;4644;48.858;9.184;2023-11-21T16:27:58;7.90;99.90